sensor_id;sensor_type;location;lat;lon;timestamp;P1;durP1;ratioP1;P2;durP2;ratioP2
26946;SDS011;14501;52.282;10.560;2023-08-07T00:00:11;11.43;;;6.18;;
26946;SDS011;14501;52.282;10.560;2023-08-07T00:02:37;12.00;;;6.40;;
26946;SDS011;14501;52.282;10.560;2023-08-07T00:05:03;11.35;;;6.70;;
26946;SDS011;14501;52.282;10.560;2023-08-07T00:07:29;10.95;;;6.63;;
26946;SDS011;14501;52.282;10.560;2023-08-07T00:09:55;10.68;;;6.53;;
26946;SDS011;14501;52.282;10.560;2023-08-07T00:12:20;8.23;;;6.18;;
26946;SDS011;14501;52.282;10.560;2023-08-07T00:14:50;11.05;;;7.70;;
26946;SDS011;14501;52.282;10.560;2023-08-07T00:17:15;9.38;;;6.55;;
26946;SDS011;14501;52.282;10.560;2023-08-07T00:19:42;11.27;;;6.10;;
26946;SDS011;14501;52.282;10.560;2023-08-07T00:22:07;10.40;;;6.70;;
26946;SDS011;14501;52.282;10.560;2023-08-07T00:24:33;9.02;;;6.50;;
26946;SDS011;14501;52.282;10.560;2023-08-07T00:26:59;12.13;;;7.35;;
26946;SDS011;14501;52.282;10.560;2023-08-07T00:29:24;7.47;;;6.20;;
26946;SDS011;14501;52.282;10.560;2023-08-07T00:31:50;10.13;;;6.32;;
26946;SDS011;14501;52.282;10.560;2023-08-07T00:34:15;10.20;;;6.63;;
26946;SDS011;14501;52.282;10.560;2023-08-07T00:36:41;16.52;;;7.30;;
26946;SDS011;14501;52.282;10.560;2023-08-07T00:39:07;9.02;;;6.53;;
26946;SDS011;14501;52.282;10.560;2023-08-07T00:41:33;13.57;;;7.28;;
26946;SDS011;14501;52.282;10.560;2023-08-07T00:43:59;10.77;;;6.68;;
26946;SDS011;14501;52.282;10.560;2023-08-07T00:46:26;15.20;;;7.05;;
26946;SDS011;14501;52.282;10.560;2023-08-07T00:48:52;14.88;;;7.10;;
26946;SDS011;14501;52.282;10.560;2023-08-07T00:51:19;9.35;;;6.57;;
26946;SDS011;14501;52.282;10.560;2023-08-07T00:53:45;10.27;;;7.30;;
26946;SDS011;14501;52.282;10.560;2023-08-07T00:56:12;12.98;;;7.15;;
26946;SDS011;14501;52.282;10.560;2023-08-07T00:58:38;11.43;;;6.40;;
26946;SDS011;14501;52.282;10.560;2023-08-07T01:01:05;11.13;;;5.38;;
26946;SDS011;14501;52.282;10.560;2023-08-07T01:03:31;7.78;;;5.65;;
26946;SDS011;14501;52.282;10.560;2023-08-07T01:05:56;7.22;;;5.57;;
26946;SDS011;14501;52.282;10.560;2023-08-07T01:08:23;10.70;;;5.20;;
26946;SDS011;14501;52.282;10.560;2023-08-07T01:13:25;9.73;;;4.35;;
26946;SDS011;14501;52.282;10.560;2023-08-07T01:16:10;7.00;;;4.80;;
26946;SDS011;14501;52.282;10.560;2023-08-07T01:18:43;8.23;;;4.70;;
26946;SDS011;14501;52.282;10.560;2023-08-07T01:21:29;8.95;;;4.07;;
26946;SDS011;14501;52.282;10.560;2023-08-07T01:23:58;7.22;;;4.28;;
26946;SDS011;14501;52.282;10.560;2023-08-07T01:26:23;8.23;;;4.60;;
26946;SDS011;14501;52.282;10.560;2023-08-07T01:28:51;7.38;;;4.15;;
26946;SDS011;14501;52.282;10.560;2023-08-07T01:31:38;6.80;;;4.78;;
26946;SDS011;14501;52.282;10.560;2023-08-07T01:34:07;8.43;;;5.40;;
26946;SDS011;14501;52.282;10.560;2023-08-07T01:36:35;8.98;;;5.70;;
26946;SDS011;14501;52.282;10.560;2023-08-07T01:39:04;8.65;;;5.78;;
26946;SDS011;14501;52.282;10.560;2023-08-07T01:41:32;10.82;;;6.13;;
26946;SDS011;14501;52.282;10.560;2023-08-07T01:43:58;9.00;;;5.70;;
26946;SDS011;14501;52.282;10.560;2023-08-07T01:46:24;8.93;;;6.13;;
26946;SDS011;14501;52.282;10.560;2023-08-07T01:48:50;9.57;;;6.78;;
26946;SDS011;14501;52.282;10.560;2023-08-07T01:51:15;10.48;;;6.88;;
26946;SDS011;14501;52.282;10.560;2023-08-07T01:53:41;10.35;;;7.35;;
26946;SDS011;14501;52.282;10.560;2023-08-07T01:56:07;12.10;;;7.68;;
26946;SDS011;14501;52.282;10.560;2023-08-07T01:58:32;12.18;;;7.45;;
26946;SDS011;14501;52.282;10.560;2023-08-07T02:00:58;12.98;;;8.35;;
26946;SDS011;14501;52.282;10.560;2023-08-07T02:03:23;17.45;;;8.70;;
26946;SDS011;14501;52.282;10.560;2023-08-07T02:05:49;11.48;;;8.38;;
26946;SDS011;14501;52.282;10.560;2023-08-07T02:08:15;14.85;;;8.68;;
26946;SDS011;14501;52.282;10.560;2023-08-07T02:10:40;14.25;;;7.50;;
26946;SDS011;14501;52.282;10.560;2023-08-07T02:13:06;14.25;;;7.97;;
26946;SDS011;14501;52.282;10.560;2023-08-07T02:15:32;13.38;;;8.07;;
26946;SDS011;14501;52.282;10.560;2023-08-07T02:17:57;19.73;;;8.05;;
26946;SDS011;14501;52.282;10.560;2023-08-07T02:20:23;13.48;;;8.35;;
26946;SDS011;14501;52.282;10.560;2023-08-07T02:22:49;14.60;;;8.70;;
26946;SDS011;14501;52.282;10.560;2023-08-07T02:25:14;10.50;;;8.68;;
26946;SDS011;14501;52.282;10.560;2023-08-07T02:27:40;11.75;;;8.85;;
26946;SDS011;14501;52.282;10.560;2023-08-07T02:30:06;12.07;;;8.75;;
26946;SDS011;14501;52.282;10.560;2023-08-07T02:32:32;11.98;;;8.98;;
26946;SDS011;14501;52.282;10.560;2023-08-07T02:34:57;11.73;;;8.68;;
26946;SDS011;14501;52.282;10.560;2023-08-07T02:37:23;12.18;;;8.60;;
26946;SDS011;14501;52.282;10.560;2023-08-07T02:39:49;12.68;;;8.68;;
26946;SDS011;14501;52.282;10.560;2023-08-07T02:42:15;15.35;;;10.32;;
26946;SDS011;14501;52.282;10.560;2023-08-07T02:44:40;11.98;;;9.90;;
26946;SDS011;14501;52.282;10.560;2023-08-07T02:47:06;15.40;;;10.35;;
26946;SDS011;14501;52.282;10.560;2023-08-07T02:49:31;18.30;;;10.57;;
26946;SDS011;14501;52.282;10.560;2023-08-07T02:51:57;14.52;;;11.13;;
26946;SDS011;14501;52.282;10.560;2023-08-07T02:54:23;19.85;;;11.88;;
26946;SDS011;14501;52.282;10.560;2023-08-07T02:56:49;16.60;;;11.40;;
26946;SDS011;14501;52.282;10.560;2023-08-07T02:59:15;16.23;;;13.18;;
26946;SDS011;14501;52.282;10.560;2023-08-07T03:01:40;14.68;;;13.07;;
26946;SDS011;14501;52.282;10.560;2023-08-07T03:04:08;18.25;;;12.57;;
26946;SDS011;14501;52.282;10.560;2023-08-07T03:06:34;17.63;;;14.13;;
26946;SDS011;14501;52.282;10.560;2023-08-07T03:09:00;17.45;;;14.30;;
26946;SDS011;14501;52.282;10.560;2023-08-07T03:11:26;22.17;;;14.95;;
26946;SDS011;14501;52.282;10.560;2023-08-07T03:13:51;20.50;;;15.32;;
26946;SDS011;14501;52.282;10.560;2023-08-07T03:16:17;16.48;;;13.95;;
26946;SDS011;14501;52.282;10.560;2023-08-07T03:18:42;20.17;;;14.55;;
26946;SDS011;14501;52.282;10.560;2023-08-07T03:21:08;16.67;;;14.68;;
26946;SDS011;14501;52.282;10.560;2023-08-07T03:23:34;18.23;;;14.63;;
26946;SDS011;14501;52.282;10.560;2023-08-07T03:26:06;16.73;;;14.77;;
26946;SDS011;14501;52.282;10.560;2023-08-07T03:28:36;18.42;;;13.77;;
26946;SDS011;14501;52.282;10.560;2023-08-07T03:31:02;19.33;;;13.73;;
26946;SDS011;14501;52.282;10.560;2023-08-07T03:33:28;19.60;;;12.20;;
26946;SDS011;14501;52.282;10.560;2023-08-07T03:35:54;15.88;;;10.45;;
26946;SDS011;14501;52.282;10.560;2023-08-07T03:38:19;13.75;;;11.32;;
26946;SDS011;14501;52.282;10.560;2023-08-07T03:40:45;14.88;;;10.00;;
26946;SDS011;14501;52.282;10.560;2023-08-07T03:43:11;16.80;;;9.55;;
26946;SDS011;14501;52.282;10.560;2023-08-07T03:45:37;14.13;;;9.70;;
26946;SDS011;14501;52.282;10.560;2023-08-07T03:48:03;14.90;;;10.80;;
26946;SDS011;14501;52.282;10.560;2023-08-07T03:50:28;12.13;;;10.40;;
26946;SDS011;14501;52.282;10.560;2023-08-07T03:52:55;17.60;;;10.23;;
26946;SDS011;14501;52.282;10.560;2023-08-07T03:55:21;16.13;;;9.75;;
26946;SDS011;14501;52.282;10.560;2023-08-07T03:57:47;12.70;;;9.70;;
26946;SDS011;14501;52.282;10.560;2023-08-07T04:00:12;15.40;;;9.90;;
26946;SDS011;14501;52.282;10.560;2023-08-07T04:02:38;11.82;;;9.52;;
26946;SDS011;14501;52.282;10.560;2023-08-07T04:05:05;16.08;;;10.00;;
26946;SDS011;14501;52.282;10.560;2023-08-07T04:07:31;11.57;;;8.60;;
26946;SDS011;14501;52.282;10.560;2023-08-07T04:09:56;17.85;;;9.07;;
26946;SDS011;14501;52.282;10.560;2023-08-07T04:12:22;13.48;;;8.50;;
26946;SDS011;14501;52.282;10.560;2023-08-07T04:14:48;15.77;;;8.07;;
26946;SDS011;14501;52.282;10.560;2023-08-07T04:17:13;11.70;;;8.60;;
26946;SDS011;14501;52.282;10.560;2023-08-07T04:19:39;16.17;;;8.65;;
26946;SDS011;14501;52.282;10.560;2023-08-07T04:22:04;10.18;;;8.60;;
26946;SDS011;14501;52.282;10.560;2023-08-07T04:24:30;13.52;;;9.00;;
26946;SDS011;14501;52.282;10.560;2023-08-07T04:26:56;17.58;;;8.90;;
26946;SDS011;14501;52.282;10.560;2023-08-07T04:29:21;10.63;;;8.23;;
26946;SDS011;14501;52.282;10.560;2023-08-07T04:31:47;10.82;;;8.07;;
26946;SDS011;14501;52.282;10.560;2023-08-07T04:34:13;16.88;;;8.82;;
26946;SDS011;14501;52.282;10.560;2023-08-07T04:36:38;10.52;;;8.38;;
26946;SDS011;14501;52.282;10.560;2023-08-07T04:39:04;11.57;;;8.45;;
26946;SDS011;14501;52.282;10.560;2023-08-07T04:41:30;13.98;;;9.18;;
26946;SDS011;14501;52.282;10.560;2023-08-07T04:43:55;14.85;;;9.23;;
26946;SDS011;14501;52.282;10.560;2023-08-07T04:46:21;9.20;;;7.90;;
26946;SDS011;14501;52.282;10.560;2023-08-07T04:48:46;11.25;;;8.45;;
26946;SDS011;14501;52.282;10.560;2023-08-07T04:51:13;11.45;;;7.25;;
26946;SDS011;14501;52.282;10.560;2023-08-07T04:53:39;8.82;;;7.60;;
26946;SDS011;14501;52.282;10.560;2023-08-07T04:56:04;10.75;;;7.70;;
26946;SDS011;14501;52.282;10.560;2023-08-07T04:58:30;12.48;;;7.05;;
26946;SDS011;14501;52.282;10.560;2023-08-07T05:00:56;14.70;;;7.15;;
26946;SDS011;14501;52.282;10.560;2023-08-07T05:03:22;14.57;;;6.85;;
26946;SDS011;14501;52.282;10.560;2023-08-07T05:05:48;9.85;;;6.45;;
26946;SDS011;14501;52.282;10.560;2023-08-07T05:08:13;9.73;;;6.57;;
26946;SDS011;14501;52.282;10.560;2023-08-07T05:10:39;9.95;;;6.30;;
26946;SDS011;14501;52.282;10.560;2023-08-07T05:13:05;11.32;;;6.85;;
26946;SDS011;14501;52.282;10.560;2023-08-07T05:15:30;13.15;;;6.95;;
26946;SDS011;14501;52.282;10.560;2023-08-07T05:17:56;12.32;;;7.20;;
26946;SDS011;14501;52.282;10.560;2023-08-07T05:20:22;12.15;;;7.97;;
26946;SDS011;14501;52.282;10.560;2023-08-07T05:22:47;14.10;;;7.18;;
26946;SDS011;14501;52.282;10.560;2023-08-07T05:25:13;12.75;;;7.38;;
26946;SDS011;14501;52.282;10.560;2023-08-07T05:27:43;14.30;;;7.38;;
26946;SDS011;14501;52.282;10.560;2023-08-07T05:30:12;11.75;;;7.35;;
26946;SDS011;14501;52.282;10.560;2023-08-07T05:32:38;11.80;;;8.00;;
26946;SDS011;14501;52.282;10.560;2023-08-07T05:35:04;14.18;;;8.27;;
26946;SDS011;14501;52.282;10.560;2023-08-07T05:37:31;10.05;;;7.68;;
26946;SDS011;14501;52.282;10.560;2023-08-07T05:39:58;11.85;;;8.40;;
26946;SDS011;14501;52.282;10.560;2023-08-07T05:42:23;12.02;;;8.02;;
26946;SDS011;14501;52.282;10.560;2023-08-07T05:44:49;8.38;;;7.32;;
26946;SDS011;14501;52.282;10.560;2023-08-07T05:47:15;16.20;;;8.18;;
26946;SDS011;14501;52.282;10.560;2023-08-07T05:49:41;13.20;;;8.27;;
26946;SDS011;14501;52.282;10.560;2023-08-07T05:52:07;10.90;;;8.18;;
26946;SDS011;14501;52.282;10.560;2023-08-07T05:54:32;12.75;;;8.55;;
26946;SDS011;14501;52.282;10.560;2023-08-07T05:56:58;14.38;;;8.00;;
26946;SDS011;14501;52.282;10.560;2023-08-07T05:59:24;17.33;;;8.43;;
26946;SDS011;14501;52.282;10.560;2023-08-07T06:01:49;13.55;;;8.77;;
26946;SDS011;14501;52.282;10.560;2023-08-07T06:04:16;13.40;;;8.68;;
26946;SDS011;14501;52.282;10.560;2023-08-07T06:06:42;12.95;;;8.25;;
26946;SDS011;14501;52.282;10.560;2023-08-07T06:09:08;11.82;;;8.35;;
26946;SDS011;14501;52.282;10.560;2023-08-07T06:11:34;10.05;;;8.25;;
26946;SDS011;14501;52.282;10.560;2023-08-07T06:14:00;15.80;;;9.52;;
26946;SDS011;14501;52.282;10.560;2023-08-07T06:16:26;16.10;;;9.85;;
26946;SDS011;14501;52.282;10.560;2023-08-07T06:18:52;14.77;;;9.82;;
26946;SDS011;14501;52.282;10.560;2023-08-07T06:21:18;14.52;;;10.32;;
26946;SDS011;14501;52.282;10.560;2023-08-07T06:23:45;22.70;;;11.82;;
26946;SDS011;14501;52.282;10.560;2023-08-07T06:26:10;15.18;;;11.70;;
26946;SDS011;14501;52.282;10.560;2023-08-07T06:28:36;18.90;;;11.75;;
26946;SDS011;14501;52.282;10.560;2023-08-07T06:31:03;18.08;;;11.25;;
26946;SDS011;14501;52.282;10.560;2023-08-07T06:33:30;16.42;;;10.43;;
26946;SDS011;14501;52.282;10.560;2023-08-07T06:35:57;18.35;;;10.23;;
26946;SDS011;14501;52.282;10.560;2023-08-07T06:38:23;7.63;;;6.57;;
26946;SDS011;14501;52.282;10.560;2023-08-07T06:40:48;9.52;;;5.57;;
26946;SDS011;14501;52.282;10.560;2023-08-07T06:43:14;2.97;;;2.67;;
26946;SDS011;14501;52.282;10.560;2023-08-07T06:45:39;2.65;;;2.10;;
26946;SDS011;14501;52.282;10.560;2023-08-07T06:48:05;2.85;;;1.77;;
26946;SDS011;14501;52.282;10.560;2023-08-07T06:50:31;2.22;;;1.75;;
26946;SDS011;14501;52.282;10.560;2023-08-07T06:52:56;2.28;;;2.00;;
26946;SDS011;14501;52.282;10.560;2023-08-07T06:55:22;3.38;;;2.22;;
26946;SDS011;14501;52.282;10.560;2023-08-07T06:57:48;4.88;;;2.55;;
26946;SDS011;14501;52.282;10.560;2023-08-07T07:00:14;4.20;;;2.45;;
26946;SDS011;14501;52.282;10.560;2023-08-07T07:02:40;5.30;;;2.33;;
26946;SDS011;14501;52.282;10.560;2023-08-07T07:05:06;3.03;;;2.22;;
26946;SDS011;14501;52.282;10.560;2023-08-07T07:07:32;4.28;;;3.28;;
26946;SDS011;14501;52.282;10.560;2023-08-07T07:09:57;5.72;;;2.63;;
26946;SDS011;14501;52.282;10.560;2023-08-07T07:12:25;4.97;;;3.50;;
26946;SDS011;14501;52.282;10.560;2023-08-07T07:14:53;4.82;;;3.78;;
26946;SDS011;14501;52.282;10.560;2023-08-07T07:17:19;6.80;;;4.55;;
26946;SDS011;14501;52.282;10.560;2023-08-07T07:19:45;6.07;;;4.80;;
26946;SDS011;14501;52.282;10.560;2023-08-07T07:22:10;9.57;;;6.47;;
26946;SDS011;14501;52.282;10.560;2023-08-07T07:24:36;14.77;;;7.85;;
26946;SDS011;14501;52.282;10.560;2023-08-07T07:27:02;12.55;;;7.72;;
26946;SDS011;14501;52.282;10.560;2023-08-07T07:29:28;9.10;;;7.00;;
26946;SDS011;14501;52.282;10.560;2023-08-07T07:31:54;8.50;;;6.82;;
26946;SDS011;14501;52.282;10.560;2023-08-07T07:34:20;8.13;;;7.20;;
26946;SDS011;14501;52.282;10.560;2023-08-07T07:36:46;10.52;;;6.78;;
26946;SDS011;14501;52.282;10.560;2023-08-07T07:39:12;9.25;;;6.20;;
26946;SDS011;14501;52.282;10.560;2023-08-07T07:41:37;7.88;;;6.82;;
26946;SDS011;14501;52.282;10.560;2023-08-07T07:44:04;7.95;;;5.90;;
26946;SDS011;14501;52.282;10.560;2023-08-07T07:46:30;9.27;;;6.50;;
26946;SDS011;14501;52.282;10.560;2023-08-07T07:48:57;14.27;;;5.93;;
26946;SDS011;14501;52.282;10.560;2023-08-07T07:51:23;9.23;;;4.90;;
26946;SDS011;14501;52.282;10.560;2023-08-07T07:53:49;5.38;;;4.53;;
26946;SDS011;14501;52.282;10.560;2023-08-07T07:56:15;4.53;;;4.10;;
26946;SDS011;14501;52.282;10.560;2023-08-07T07:58:40;6.53;;;3.65;;
26946;SDS011;14501;52.282;10.560;2023-08-07T08:01:06;5.63;;;2.88;;
26946;SDS011;14501;52.282;10.560;2023-08-07T08:03:33;4.32;;;3.15;;
26946;SDS011;14501;52.282;10.560;2023-08-07T08:05:58;6.25;;;3.67;;
26946;SDS011;14501;52.282;10.560;2023-08-07T08:08:24;5.80;;;2.78;;
26946;SDS011;14501;52.282;10.560;2023-08-07T08:10:50;4.65;;;2.20;;
26946;SDS011;14501;52.282;10.560;2023-08-07T08:13:16;3.42;;;1.88;;
26946;SDS011;14501;52.282;10.560;2023-08-07T08:15:43;5.47;;;1.88;;
26946;SDS011;14501;52.282;10.560;2023-08-07T08:18:09;3.95;;;1.90;;
26946;SDS011;14501;52.282;10.560;2023-08-07T08:20:35;3.85;;;2.22;;
26946;SDS011;14501;52.282;10.560;2023-08-07T08:23:02;3.15;;;2.10;;
26946;SDS011;14501;52.282;10.560;2023-08-07T08:25:27;2.53;;;1.90;;
26946;SDS011;14501;52.282;10.560;2023-08-07T08:27:53;5.13;;;2.10;;
26946;SDS011;14501;52.282;10.560;2023-08-07T08:30:19;3.90;;;2.10;;
26946;SDS011;14501;52.282;10.560;2023-08-07T08:32:45;6.95;;;2.20;;
26946;SDS011;14501;52.282;10.560;2023-08-07T08:35:11;5.47;;;2.13;;
26946;SDS011;14501;52.282;10.560;2023-08-07T08:37:37;4.10;;;1.92;;
26946;SDS011;14501;52.282;10.560;2023-08-07T08:40:03;4.05;;;1.90;;
26946;SDS011;14501;52.282;10.560;2023-08-07T08:42:28;5.38;;;2.13;;
26946;SDS011;14501;52.282;10.560;2023-08-07T08:44:55;4.35;;;1.90;;
26946;SDS011;14501;52.282;10.560;2023-08-07T08:47:21;3.10;;;1.75;;
26946;SDS011;14501;52.282;10.560;2023-08-07T08:49:54;3.75;;;1.90;;
26946;SDS011;14501;52.282;10.560;2023-08-07T08:52:28;5.90;;;1.95;;
26946;SDS011;14501;52.282;10.560;2023-08-07T08:54:56;4.85;;;1.88;;
26946;SDS011;14501;52.282;10.560;2023-08-07T08:57:23;3.75;;;1.90;;
26946;SDS011;14501;52.282;10.560;2023-08-07T08:59:51;3.22;;;2.05;;
26946;SDS011;14501;52.282;10.560;2023-08-07T09:02:17;4.40;;;1.88;;
26946;SDS011;14501;52.282;10.560;2023-08-07T09:04:43;4.05;;;2.20;;
26946;SDS011;14501;52.282;10.560;2023-08-07T09:07:10;4.63;;;1.45;;
26946;SDS011;14501;52.282;10.560;2023-08-07T09:09:43;3.00;;;1.50;;
26946;SDS011;14501;52.282;10.560;2023-08-07T09:12:12;2.20;;;1.38;;
26946;SDS011;14501;52.282;10.560;2023-08-07T09:14:43;4.45;;;1.60;;
26946;SDS011;14501;52.282;10.560;2023-08-07T09:17:11;4.65;;;1.60;;
26946;SDS011;14501;52.282;10.560;2023-08-07T09:19:38;2.63;;;1.02;;
26946;SDS011;14501;52.282;10.560;2023-08-07T09:22:04;2.90;;;1.45;;
26946;SDS011;14501;52.282;10.560;2023-08-07T09:24:31;3.70;;;1.13;;
26946;SDS011;14501;52.282;10.560;2023-08-07T09:26:57;2.63;;;1.48;;
26946;SDS011;14501;52.282;10.560;2023-08-07T09:29:23;2.00;;;1.10;;
26946;SDS011;14501;52.282;10.560;2023-08-07T09:31:49;4.13;;;1.35;;
26946;SDS011;14501;52.282;10.560;2023-08-07T09:34:15;3.28;;;1.48;;
26946;SDS011;14501;52.282;10.560;2023-08-07T09:36:45;3.13;;;1.70;;
26946;SDS011;14501;52.282;10.560;2023-08-07T09:39:11;8.73;;;2.30;;
26946;SDS011;14501;52.282;10.560;2023-08-07T09:41:36;8.02;;;2.05;;
26946;SDS011;14501;52.282;10.560;2023-08-07T09:44:05;3.05;;;1.60;;
26946;SDS011;14501;52.282;10.560;2023-08-07T09:46:40;3.83;;;2.08;;
26946;SDS011;14501;52.282;10.560;2023-08-07T09:49:06;7.20;;;2.58;;
26946;SDS011;14501;52.282;10.560;2023-08-07T09:51:41;5.22;;;2.20;;
26946;SDS011;14501;52.282;10.560;2023-08-07T09:54:11;6.40;;;2.35;;
26946;SDS011;14501;52.282;10.560;2023-08-07T09:56:37;4.88;;;1.83;;
26946;SDS011;14501;52.282;10.560;2023-08-07T09:59:04;8.63;;;2.15;;
26946;SDS011;14501;52.282;10.560;2023-08-07T10:01:31;6.20;;;2.50;;
26946;SDS011;14501;52.282;10.560;2023-08-07T10:03:57;5.60;;;2.40;;
26946;SDS011;14501;52.282;10.560;2023-08-07T10:06:23;9.68;;;2.35;;
26946;SDS011;14501;52.282;10.560;2023-08-07T10:08:50;8.65;;;3.08;;
26946;SDS011;14501;52.282;10.560;2023-08-07T10:11:16;6.38;;;2.45;;
26946;SDS011;14501;52.282;10.560;2023-08-07T10:13:43;7.80;;;2.50;;
26946;SDS011;14501;52.282;10.560;2023-08-07T10:16:09;5.00;;;1.83;;
26946;SDS011;14501;52.282;10.560;2023-08-07T10:18:36;5.25;;;1.95;;
26946;SDS011;14501;52.282;10.560;2023-08-07T10:21:04;5.65;;;1.90;;
26946;SDS011;14501;52.282;10.560;2023-08-07T10:23:33;8.18;;;2.13;;
26946;SDS011;14501;52.282;10.560;2023-08-07T10:26:01;7.22;;;2.45;;
26946;SDS011;14501;52.282;10.560;2023-08-07T10:28:29;3.88;;;1.90;;
26946;SDS011;14501;52.282;10.560;2023-08-07T10:30:57;6.25;;;2.10;;
26946;SDS011;14501;52.282;10.560;2023-08-07T10:33:23;7.75;;;1.92;;
26946;SDS011;14501;52.282;10.560;2023-08-07T10:35:51;7.50;;;2.00;;
26946;SDS011;14501;52.282;10.560;2023-08-07T10:38:22;5.65;;;1.90;;
26946;SDS011;14501;52.282;10.560;2023-08-07T10:43:38;6.40;;;2.40;;
26946;SDS011;14501;52.282;10.560;2023-08-07T10:46:05;7.60;;;2.50;;
26946;SDS011;14501;52.282;10.560;2023-08-07T10:48:53;8.88;;;2.53;;
26946;SDS011;14501;52.282;10.560;2023-08-07T10:51:28;3.40;;;2.05;;
26946;SDS011;14501;52.282;10.560;2023-08-07T10:53:57;9.27;;;2.45;;
26946;SDS011;14501;52.282;10.560;2023-08-07T10:58:55;10.82;;;2.50;;
26946;SDS011;14501;52.282;10.560;2023-08-07T11:03:56;3.53;;;1.67;;
26946;SDS011;14501;52.282;10.560;2023-08-07T11:06:24;4.50;;;1.88;;
26946;SDS011;14501;52.282;10.560;2023-08-07T11:08:51;5.38;;;2.13;;
26946;SDS011;14501;52.282;10.560;2023-08-07T11:11:17;8.52;;;3.13;;
26946;SDS011;14501;52.282;10.560;2023-08-07T11:13:44;7.22;;;2.13;;
26946;SDS011;14501;52.282;10.560;2023-08-07T11:16:09;7.72;;;2.15;;
26946;SDS011;14501;52.282;10.560;2023-08-07T11:18:36;6.50;;;2.00;;
26946;SDS011;14501;52.282;10.560;2023-08-07T11:21:06;6.65;;;2.17;;
26946;SDS011;14501;52.282;10.560;2023-08-07T11:23:32;4.72;;;2.15;;
26946;SDS011;14501;52.282;10.560;2023-08-07T11:25:58;4.65;;;2.22;;
26946;SDS011;14501;52.282;10.560;2023-08-07T11:28:24;3.63;;;2.28;;
26946;SDS011;14501;52.282;10.560;2023-08-07T11:30:52;8.63;;;2.50;;
26946;SDS011;14501;52.282;10.560;2023-08-07T11:33:20;5.10;;;1.80;;
26946;SDS011;14501;52.282;10.560;2023-08-07T11:35:47;10.18;;;2.05;;
26946;SDS011;14501;52.282;10.560;2023-08-07T11:38:16;4.85;;;2.40;;
26946;SDS011;14501;52.282;10.560;2023-08-07T11:41:04;10.82;;;1.90;;
26946;SDS011;14501;52.282;10.560;2023-08-07T11:43:33;7.18;;;2.10;;
26946;SDS011;14501;52.282;10.560;2023-08-07T11:46:00;7.15;;;2.00;;
26946;SDS011;14501;52.282;10.560;2023-08-07T11:48:28;6.32;;;1.98;;
26946;SDS011;14501;52.282;10.560;2023-08-07T11:50:54;4.80;;;2.00;;
26946;SDS011;14501;52.282;10.560;2023-08-07T11:53:21;7.38;;;1.70;;
26946;SDS011;14501;52.282;10.560;2023-08-07T11:55:51;8.25;;;2.08;;
26946;SDS011;14501;52.282;10.560;2023-08-07T12:00:47;3.78;;;1.65;;
26946;SDS011;14501;52.282;10.560;2023-08-07T12:05:52;9.65;;;1.75;;
26946;SDS011;14501;52.282;10.560;2023-08-07T12:08:20;4.53;;;1.75;;
26946;SDS011;14501;52.282;10.560;2023-08-07T12:10:49;7.53;;;1.85;;
26946;SDS011;14501;52.282;10.560;2023-08-07T12:13:16;5.15;;;1.90;;
26946;SDS011;14501;52.282;10.560;2023-08-07T12:15:44;6.88;;;1.60;;
26946;SDS011;14501;52.282;10.560;2023-08-07T12:18:12;4.95;;;1.48;;
26946;SDS011;14501;52.282;10.560;2023-08-07T12:20:47;5.35;;;2.30;;
26946;SDS011;14501;52.282;10.560;2023-08-07T12:23:20;6.38;;;2.08;;
26946;SDS011;14501;52.282;10.560;2023-08-07T12:25:47;3.78;;;1.70;;
26946;SDS011;14501;52.282;10.560;2023-08-07T12:28:12;5.47;;;1.73;;
26946;SDS011;14501;52.282;10.560;2023-08-07T12:30:38;5.60;;;1.88;;
26946;SDS011;14501;52.282;10.560;2023-08-07T12:33:04;4.78;;;1.90;;
26946;SDS011;14501;52.282;10.560;2023-08-07T12:35:32;8.13;;;1.90;;
26946;SDS011;14501;52.282;10.560;2023-08-07T12:37:59;3.10;;;1.60;;
26946;SDS011;14501;52.282;10.560;2023-08-07T12:40:24;6.03;;;1.50;;
26946;SDS011;14501;52.282;10.560;2023-08-07T12:42:50;5.50;;;1.83;;
26946;SDS011;14501;52.282;10.560;2023-08-07T12:45:16;6.75;;;1.50;;
26946;SDS011;14501;52.282;10.560;2023-08-07T12:47:43;7.65;;;1.77;;
26946;SDS011;14501;52.282;10.560;2023-08-07T12:50:10;4.25;;;1.48;;
26946;SDS011;14501;52.282;10.560;2023-08-07T12:52:35;7.35;;;1.42;;
26946;SDS011;14501;52.282;10.560;2023-08-07T12:55:01;2.88;;;1.25;;
26946;SDS011;14501;52.282;10.560;2023-08-07T12:57:27;5.18;;;1.55;;
26946;SDS011;14501;52.282;10.560;2023-08-07T12:59:52;3.35;;;1.45;;
26946;SDS011;14501;52.282;10.560;2023-08-07T13:02:18;3.05;;;1.48;;
26946;SDS011;14501;52.282;10.560;2023-08-07T13:04:44;6.15;;;1.05;;
26946;SDS011;14501;52.282;10.560;2023-08-07T13:07:09;3.33;;;1.00;;
26946;SDS011;14501;52.282;10.560;2023-08-07T13:09:35;7.15;;;0.98;;
26946;SDS011;14501;52.282;10.560;2023-08-07T13:12:00;4.20;;;0.80;;
26946;SDS011;14501;52.282;10.560;2023-08-07T13:14:26;3.45;;;0.90;;
26946;SDS011;14501;52.282;10.560;2023-08-07T13:16:52;5.60;;;1.33;;
26946;SDS011;14501;52.282;10.560;2023-08-07T13:19:17;3.22;;;0.73;;
26946;SDS011;14501;52.282;10.560;2023-08-07T13:21:43;4.65;;;1.08;;
26946;SDS011;14501;52.282;10.560;2023-08-07T13:24:09;2.97;;;1.30;;
26946;SDS011;14501;52.282;10.560;2023-08-07T13:26:34;6.57;;;1.33;;
26946;SDS011;14501;52.282;10.560;2023-08-07T13:29:01;4.30;;;1.40;;
26946;SDS011;14501;52.282;10.560;2023-08-07T13:31:27;2.88;;;1.20;;
26946;SDS011;14501;52.282;10.560;2023-08-07T13:33:52;3.45;;;1.10;;
26946;SDS011;14501;52.282;10.560;2023-08-07T13:36:18;5.95;;;1.70;;
26946;SDS011;14501;52.282;10.560;2023-08-07T13:38:43;3.85;;;1.27;;
26946;SDS011;14501;52.282;10.560;2023-08-07T13:41:09;7.82;;;2.15;;
26946;SDS011;14501;52.282;10.560;2023-08-07T13:43:36;5.30;;;1.58;;
26946;SDS011;14501;52.282;10.560;2023-08-07T13:46:02;5.72;;;1.50;;
26946;SDS011;14501;52.282;10.560;2023-08-07T13:48:28;4.85;;;1.70;;
26946;SDS011;14501;52.282;10.560;2023-08-07T13:50:53;3.03;;;1.30;;
26946;SDS011;14501;52.282;10.560;2023-08-07T13:53:19;5.55;;;1.23;;
26946;SDS011;14501;52.282;10.560;2023-08-07T13:55:45;7.65;;;1.70;;
26946;SDS011;14501;52.282;10.560;2023-08-07T13:58:12;7.03;;;1.98;;
26946;SDS011;14501;52.282;10.560;2023-08-07T14:00:41;6.40;;;1.90;;
26946;SDS011;14501;52.282;10.560;2023-08-07T14:03:07;6.07;;;1.70;;
26946;SDS011;14501;52.282;10.560;2023-08-07T14:05:34;4.05;;;1.58;;
26946;SDS011;14501;52.282;10.560;2023-08-07T14:08:00;5.10;;;1.80;;
26946;SDS011;14501;52.282;10.560;2023-08-07T14:10:27;7.53;;;2.13;;
26946;SDS011;14501;52.282;10.560;2023-08-07T14:12:52;5.13;;;2.08;;
26946;SDS011;14501;52.282;10.560;2023-08-07T14:15:18;6.50;;;2.13;;
26946;SDS011;14501;52.282;10.560;2023-08-07T14:17:44;10.38;;;2.20;;
26946;SDS011;14501;52.282;10.560;2023-08-07T14:20:09;6.18;;;2.35;;
26946;SDS011;14501;52.282;10.560;2023-08-07T14:22:36;12.63;;;2.50;;
26946;SDS011;14501;52.282;10.560;2023-08-07T14:25:03;8.23;;;2.40;;
26946;SDS011;14501;52.282;10.560;2023-08-07T14:27:30;10.98;;;2.72;;
26946;SDS011;14501;52.282;10.560;2023-08-07T14:29:55;6.82;;;2.20;;
26946;SDS011;14501;52.282;10.560;2023-08-07T14:32:21;6.82;;;2.33;;
26946;SDS011;14501;52.282;10.560;2023-08-07T14:34:47;6.45;;;2.72;;
26946;SDS011;14501;52.282;10.560;2023-08-07T14:37:14;6.43;;;2.15;;
26946;SDS011;14501;52.282;10.560;2023-08-07T14:39:39;5.50;;;2.03;;